sensor_id;sensor_type;location;lat;lon;timestamp;P1;durP1;ratioP1;P2;durP2;ratioP2
47021;SDS011;32779;52.264;6.154;2024-02-04T14:00:32;3.08;;;1.13;;
47021;SDS011;32779;52.264;6.154;2024-02-04T14:02:58;0.93;;;0.80;;
47021;SDS011;32779;52.264;6.154;2024-02-04T14:05:24;2.08;;;0.80;;
47021;SDS011;32779;52.264;6.154;2024-02-04T14:10:16;3.55;;;0.90;;
47021;SDS011;32779;52.264;6.154;2024-02-04T14:12:41;3.75;;;1.10;;
47021;SDS011;32779;52.264;6.154;2024-02-04T14:15:10;1.98;;;1.20;;
47021;SDS011;32779;52.264;6.154;2024-02-04T14:17:36;3.72;;;1.67;;
47021;SDS011;32779;52.264;6.154;2024-02-04T14:20:02;5.95;;;2.45;;
47021;SDS011;32779;52.264;6.154;2024-02-04T14:22:29;6.82;;;2.33;;
47021;SDS011;32779;52.264;6.154;2024-02-04T14:24:55;6.00;;;3.17;;
47021;SDS011;32779;52.264;6.154;2024-02-04T14:27:21;7.60;;;2.60;;
47021;SDS011;32779;52.264;6.154;2024-02-04T14:29:47;9.43;;;3.00;;
47021;SDS011;32779;52.264;6.154;2024-02-04T14:32:13;12.18;;;3.03;;
47021;SDS011;32779;52.264;6.154;2024-02-04T14:34:39;10.40;;;3.05;;
47021;SDS011;32779;52.264;6.154;2024-02-04T14:37:05;10.85;;;2.85;;
47021;SDS011;32779;52.264;6.154;2024-02-04T14:39:30;7.55;;;2.63;;
47021;SDS011;32779;52.264;6.154;2024-02-04T14:41:57;8.95;;;2.55;;
47021;SDS011;32779;52.264;6.154;2024-02-04T14:44:23;9.18;;;2.58;;
47021;SDS011;32779;52.264;6.154;2024-02-04T14:46:48;7.97;;;2.40;;
47021;SDS011;32779;52.264;6.154;2024-02-04T14:49:14;10.52;;;4.30;;
47021;SDS011;32779;52.264;6.154;2024-02-04T14:51:40;11.80;;;5.28;;
47021;SDS011;32779;52.264;6.154;2024-02-04T14:54:06;10.60;;;3.47;;
47021;SDS011;32779;52.264;6.154;2024-02-04T14:56:38;7.05;;;2.72;;
47021;SDS011;32779;52.264;6.154;2024-02-04T14:59:04;7.13;;;2.90;;
47021;SDS011;32779;52.264;6.154;2024-02-04T15:01:31;7.18;;;4.00;;
47021;SDS011;32779;52.264;6.154;2024-02-04T15:03:57;11.02;;;3.80;;
47021;SDS011;32779;52.264;6.154;2024-02-04T15:06:22;8.38;;;3.47;;
47021;SDS011;32779;52.264;6.154;2024-02-04T15:08:48;6.85;;;2.80;;
47021;SDS011;32779;52.264;6.154;2024-02-04T15:11:13;6.78;;;2.80;;
47021;SDS011;32779;52.264;6.154;2024-02-04T15:13:39;5.90;;;2.42;;
47021;SDS011;32779;52.264;6.154;2024-02-04T15:16:05;11.38;;;2.95;;
47021;SDS011;32779;52.264;6.154;2024-02-04T15:18:32;8.88;;;3.10;;
47021;SDS011;32779;52.264;6.154;2024-02-04T15:20:58;7.60;;;3.53;;
47021;SDS011;32779;52.264;6.154;2024-02-04T15:23:24;9.95;;;4.28;;
47021;SDS011;32779;52.264;6.154;2024-02-04T15:25:50;6.38;;;3.28;;
47021;SDS011;32779;52.264;6.154;2024-02-04T15:28:17;5.97;;;3.28;;
47021;SDS011;32779;52.264;6.154;2024-02-04T15:30:43;10.98;;;4.68;;
47021;SDS011;32779;52.264;6.154;2024-02-04T15:33:09;10.90;;;4.65;;
47021;SDS011;32779;52.264;6.154;2024-02-04T15:35:34;10.32;;;4.95;;
47021;SDS011;32779;52.264;6.154;2024-02-04T15:38:00;12.07;;;5.20;;
47021;SDS011;32779;52.264;6.154;2024-02-04T15:40:26;13.85;;;7.18;;
47021;SDS011;32779;52.264;6.154;2024-02-04T15:42:51;17.85;;;7.28;;
47021;SDS011;32779;52.264;6.154;2024-02-04T15:45:17;15.27;;;6.32;;
47021;SDS011;32779;52.264;6.154;2024-02-04T15:47:52;13.55;;;6.88;;
47021;SDS011;32779;52.264;6.154;2024-02-04T15:50:19;19.65;;;6.13;;
47021;SDS011;32779;52.264;6.154;2024-02-04T15:52:49;12.80;;;5.85;;
47021;SDS011;32779;52.264;6.154;2024-02-04T15:55:15;20.67;;;5.78;;
47021;SDS011;32779;52.264;6.154;2024-02-04T15:57:43;14.15;;;6.57;;
47021;SDS011;32779;52.264;6.154;2024-02-04T16:00:12;14.52;;;6.28;;
47021;SDS011;32779;52.264;6.154;2024-02-04T16:02:50;12.10;;;6.05;;
47021;SDS011;32779;52.264;6.154;2024-02-04T16:05:17;17.23;;;6.93;;
47021;SDS011;32779;52.264;6.154;2024-02-04T16:07:43;17.15;;;8.57;;
47021;SDS011;32779;52.264;6.154;2024-02-04T16:10:10;20.80;;;7.47;;
47021;SDS011;32779;52.264;6.154;2024-02-04T16:12:38;23.17;;;10.02;;
47021;SDS011;32779;52.264;6.154;2024-02-04T16:15:05;25.17;;;10.30;;
47021;SDS011;32779;52.264;6.154;2024-02-04T16:17:34;17.73;;;7.03;;
47021;SDS011;32779;52.264;6.154;2024-02-04T16:20:04;12.77;;;5.13;;
47021;SDS011;32779;52.264;6.154;2024-02-04T16:22:31;12.45;;;4.30;;
47021;SDS011;32779;52.264;6.154;2024-02-04T16:24:58;14.23;;;4.07;;
47021;SDS011;32779;52.264;6.154;2024-02-04T16:27:24;11.00;;;3.92;;
47021;SDS011;32779;52.264;6.154;2024-02-04T16:29:50;16.08;;;4.60;;
47021;SDS011;32779;52.264;6.154;2024-02-04T16:32:15;12.55;;;4.13;;
47021;SDS011;32779;52.264;6.154;2024-02-04T16:34:41;9.30;;;4.38;;
47021;SDS011;32779;52.264;6.154;2024-02-04T16:37:06;17.83;;;6.30;;
47021;SDS011;32779;52.264;6.154;2024-02-04T16:39:34;15.60;;;6.28;;
47021;SDS011;32779;52.264;6.154;2024-02-04T16:42:03;16.23;;;6.55;;
47021;SDS011;32779;52.264;6.154;2024-02-04T16:44:29;21.73;;;7.18;;
47021;SDS011;32779;52.264;6.154;2024-02-04T16:46:55;11.93;;;3.42;;
47021;SDS011;32779;52.264;6.154;2024-02-04T16:49:22;17.30;;;5.28;;
47021;SDS011;32779;52.264;6.154;2024-02-04T16:51:52;19.90;;;7.88;;
47021;SDS011;32779;52.264;6.154;2024-02-04T16:54:17;17.02;;;6.45;;
47021;SDS011;32779;52.264;6.154;2024-02-04T16:56:43;14.40;;;5.43;;
47021;SDS011;32779;52.264;6.154;2024-02-04T16:59:11;12.40;;;5.20;;
47021;SDS011;32779;52.264;6.154;2024-02-04T17:04:02;20.25;;;6.15;;
47021;SDS011;32779;52.264;6.154;2024-02-04T17:06:30;20.90;;;5.80;;
47021;SDS011;32779;52.264;6.154;2024-02-04T17:08:56;27.70;;;8.60;;
47021;SDS011;32779;52.264;6.154;2024-02-04T17:11:22;28.38;;;8.80;;
47021;SDS011;32779;52.264;6.154;2024-02-04T17:13:50;28.83;;;7.60;;
47021;SDS011;32779;52.264;6.154;2024-02-04T17:19:12;29.40;;;9.43;;
47021;SDS011;32779;52.264;6.154;2024-02-04T17:22:05;33.55;;;9.65;;
47021;SDS011;32779;52.264;6.154;2024-02-04T17:24:38;23.80;;;8.18;;
47021;SDS011;32779;52.264;6.154;2024-02-04T17:27:09;16.33;;;6.32;;
47021;SDS011;32779;52.264;6.154;2024-02-04T17:29:36;24.02;;;8.40;;
47021;SDS011;32779;52.264;6.154;2024-02-04T17:32:02;24.83;;;9.20;;
47021;SDS011;32779;52.264;6.154;2024-02-04T17:34:33;29.08;;;8.93;;
47021;SDS011;32779;52.264;6.154;2024-02-04T17:36:59;28.23;;;9.57;;
47021;SDS011;32779;52.264;6.154;2024-02-04T17:39:24;22.25;;;8.77;;
47021;SDS011;32779;52.264;6.154;2024-02-04T17:41:52;24.30;;;7.75;;
47021;SDS011;32779;52.264;6.154;2024-02-04T17:44:21;25.67;;;7.53;;
47021;SDS011;32779;52.264;6.154;2024-02-04T17:46:46;19.70;;;8.40;;
47021;SDS011;32779;52.264;6.154;2024-02-04T17:49:13;24.58;;;8.25;;
47021;SDS011;32779;52.264;6.154;2024-02-04T17:51:43;21.80;;;7.75;;
47021;SDS011;32779;52.264;6.154;2024-02-04T17:54:09;25.60;;;7.85;;
47021;SDS011;32779;52.264;6.154;2024-02-04T17:56:35;18.10;;;6.78;;
47021;SDS011;32779;52.264;6.154;2024-02-04T17:59:01;30.35;;;8.25;;
47021;SDS011;32779;52.264;6.154;2024-02-04T18:01:26;22.65;;;7.53;;
47021;SDS011;32779;52.264;6.154;2024-02-04T18:03:53;26.10;;;7.40;;
47021;SDS011;32779;52.264;6.154;2024-02-04T18:06:19;30.35;;;8.20;;
47021;SDS011;32779;52.264;6.154;2024-02-04T18:11:29;21.48;;;7.18;;
47021;SDS011;32779;52.264;6.154;2024-02-04T18:13:54;23.20;;;6.80;;
47021;SDS011;32779;52.264;6.154;2024-02-04T18:16:22;24.20;;;8.65;;
47021;SDS011;32779;52.264;6.154;2024-02-04T18:18:48;25.27;;;10.13;;
47021;SDS011;32779;52.264;6.154;2024-02-04T18:21:21;23.48;;;7.30;;
47021;SDS011;32779;52.264;6.154;2024-02-04T18:23:47;23.00;;;7.38;;
47021;SDS011;32779;52.264;6.154;2024-02-04T18:28:50;26.15;;;8.30;;
47021;SDS011;32779;52.264;6.154;2024-02-04T18:31:16;28.60;;;8.02;;
47021;SDS011;32779;52.264;6.154;2024-02-04T18:33:41;23.63;;;7.38;;
47021;SDS011;32779;52.264;6.154;2024-02-04T18:38:36;23.15;;;7.72;;
47021;SDS011;32779;52.264;6.154;2024-02-04T18:41:02;24.83;;;7.70;;
47021;SDS011;32779;52.264;6.154;2024-02-04T18:43:30;20.73;;;7.25;;
47021;SDS011;32779;52.264;6.154;2024-02-04T18:45:55;17.83;;;7.28;;
47021;SDS011;32779;52.264;6.154;2024-02-04T18:48:21;23.73;;;7.18;;
47021;SDS011;32779;52.264;6.154;2024-02-04T18:50:47;30.45;;;7.22;;
47021;SDS011;32779;52.264;6.154;2024-02-04T18:53:15;28.33;;;7.97;;
47021;SDS011;32779;52.264;6.154;2024-02-04T18:55:42;24.52;;;7.20;;
47021;SDS011;32779;52.264;6.154;2024-02-04T18:58:08;30.60;;;7.90;;
47021;SDS011;32779;52.264;6.154;2024-02-04T19:00:34;23.65;;;7.25;;
47021;SDS011;32779;52.264;6.154;2024-02-04T19:02:59;18.25;;;7.22;;
47021;SDS011;32779;52.264;6.154;2024-02-04T19:05:25;22.80;;;8.00;;
47021;SDS011;32779;52.264;6.154;2024-02-04T19:07:51;27.33;;;7.35;;
47021;SDS011;32779;52.264;6.154;2024-02-04T19:10:16;28.98;;;6.95;;
47021;SDS011;32779;52.264;6.154;2024-02-04T19:12:42;25.15;;;7.25;;
47021;SDS011;32779;52.264;6.154;2024-02-04T19:15:08;25.35;;;7.20;;
47021;SDS011;32779;52.264;6.154;2024-02-04T19:17:34;30.35;;;6.75;;
47021;SDS011;32779;52.264;6.154;2024-02-04T19:20:02;24.20;;;8.40;;
47021;SDS011;32779;52.264;6.154;2024-02-04T19:22:28;24.75;;;6.97;;
47021;SDS011;32779;52.264;6.154;2024-02-04T19:24:55;21.83;;;6.28;;
47021;SDS011;32779;52.264;6.154;2024-02-04T19:27:21;25.98;;;6.25;;
47021;SDS011;32779;52.264;6.154;2024-02-04T19:29:46;25.38;;;6.68;;
47021;SDS011;32779;52.264;6.154;2024-02-04T19:32:12;24.90;;;7.32;;
47021;SDS011;32779;52.264;6.154;2024-02-04T19:34:38;22.83;;;6.78;;
47021;SDS011;32779;52.264;6.154;2024-02-04T19:37:03;29.48;;;7.55;;
47021;SDS011;32779;52.264;6.154;2024-02-04T19:39:30;20.35;;;6.40;;
47021;SDS011;32779;52.264;6.154;2024-02-04T19:41:56;25.42;;;6.97;;
47021;SDS011;32779;52.264;6.154;2024-02-04T19:44:23;16.25;;;6.90;;
47021;SDS011;32779;52.264;6.154;2024-02-04T19:46:49;24.92;;;7.97;;
47021;SDS011;32779;52.264;6.154;2024-02-04T19:49:14;18.05;;;5.60;;
47021;SDS011;32779;52.264;6.154;2024-02-04T19:51:41;23.55;;;5.85;;
47021;SDS011;32779;52.264;6.154;2024-02-04T19:54:07;25.60;;;5.90;;
47021;SDS011;32779;52.264;6.154;2024-02-04T19:56:33;26.00;;;5.22;;
47021;SDS011;32779;52.264;6.154;2024-02-04T19:58:59;25.75;;;6.55;;
47021;SDS011;32779;52.264;6.154;2024-02-04T20:01:32;19.85;;;4.68;;
47021;SDS011;32779;52.264;6.154;2024-02-04T20:03:58;19.25;;;5.55;;
47021;SDS011;32779;52.264;6.154;2024-02-04T20:06:24;16.50;;;4.53;;
47021;SDS011;32779;52.264;6.154;2024-02-04T20:08:49;19.00;;;4.85;;
47021;SDS011;32779;52.264;6.154;2024-02-04T20:11:15;24.50;;;7.97;;
47021;SDS011;32779;52.264;6.154;2024-02-04T20:13:41;19.40;;;6.68;;
47021;SDS011;32779;52.264;6.154;2024-02-04T20:16:10;24.27;;;6.97;;
47021;SDS011;32779;52.264;6.154;2024-02-04T20:18:37;22.38;;;6.18;;
47021;SDS011;32779;52.264;6.154;2024-02-04T20:21:04;18.33;;;5.35;;
47021;SDS011;32779;52.264;6.154;2024-02-04T20:23:30;19.02;;;4.68;;
47021;SDS011;32779;52.264;6.154;2024-02-04T20:25:55;16.90;;;4.63;;
47021;SDS011;32779;52.264;6.154;2024-02-04T20:28:22;14.20;;;3.92;;
47021;SDS011;32779;52.264;6.154;2024-02-04T20:30:48;16.63;;;3.63;;
47021;SDS011;32779;52.264;6.154;2024-02-04T20:33:14;18.20;;;3.60;;
47021;SDS011;32779;52.264;6.154;2024-02-04T20:35:40;17.10;;;4.03;;
47021;SDS011;32779;52.264;6.154;2024-02-04T20:38:06;17.45;;;4.32;;
47021;SDS011;32779;52.264;6.154;2024-02-04T20:40:32;22.60;;;4.70;;
47021;SDS011;32779;52.264;6.154;2024-02-04T20:45:23;23.55;;;3.72;;
47021;SDS011;32779;52.264;6.154;2024-02-04T20:47:49;10.30;;;2.78;;
47021;SDS011;32779;52.264;6.154;2024-02-04T20:50:16;18.48;;;3.42;;
47021;SDS011;32779;52.264;6.154;2024-02-04T20:52:42;21.52;;;4.60;;
47021;SDS011;32779;52.264;6.154;2024-02-04T20:55:07;19.83;;;4.03;;
47021;SDS011;32779;52.264;6.154;2024-02-04T20:57:33;19.63;;;3.78;;
47021;SDS011;32779;52.264;6.154;2024-02-04T20:59:59;16.67;;;3.03;;
47021;SDS011;32779;52.264;6.154;2024-02-04T21:02:27;14.05;;;4.28;;
47021;SDS011;32779;52.264;6.154;2024-02-04T21:04:53;15.00;;;3.45;;
47021;SDS011;32779;52.264;6.154;2024-02-04T21:07:19;18.73;;;3.13;;
47021;SDS011;32779;52.264;6.154;2024-02-04T21:09:44;15.20;;;3.55;;
47021;SDS011;32779;52.264;6.154;2024-02-04T21:12:12;13.80;;;2.92;;
47021;SDS011;32779;52.264;6.154;2024-02-04T21:14:38;19.60;;;3.53;;
47021;SDS011;32779;52.264;6.154;2024-02-04T21:17:04;21.30;;;4.05;;
47021;SDS011;32779;52.264;6.154;2024-02-04T21:19:31;18.20;;;3.33;;
47021;SDS011;32779;52.264;6.154;2024-02-04T21:21:57;19.67;;;3.60;;
47021;SDS011;32779;52.264;6.154;2024-02-04T21:24:23;18.30;;;4.45;;
47021;SDS011;32779;52.264;6.154;2024-02-04T21:26:48;20.33;;;3.75;;
47021;SDS011;32779;52.264;6.154;2024-02-04T21:29:14;18.73;;;3.75;;
47021;SDS011;32779;52.264;6.154;2024-02-04T21:31:40;16.00;;;4.05;;
47021;SDS011;32779;52.264;6.154;2024-02-04T21:34:05;23.45;;;4.70;;
47021;SDS011;32779;52.264;6.154;2024-02-04T21:36:31;17.67;;;3.78;;
47021;SDS011;32779;52.264;6.154;2024-02-04T21:38:57;22.35;;;4.72;;
47021;SDS011;32779;52.264;6.154;2024-02-04T21:41:22;18.80;;;3.97;;
47021;SDS011;32779;52.264;6.154;2024-02-04T21:43:48;19.85;;;4.32;;
47021;SDS011;32779;52.264;6.154;2024-02-04T21:46:14;22.35;;;4.45;;
47021;SDS011;32779;52.264;6.154;2024-02-04T21:48:41;24.08;;;4.15;;
47021;SDS011;32779;52.264;6.154;2024-02-04T21:51:08;25.15;;;4.53;;
47021;SDS011;32779;52.264;6.154;2024-02-04T21:53:34;15.02;;;3.70;;
47021;SDS011;32779;52.264;6.154;2024-02-04T21:56:00;18.70;;;4.35;;
47021;SDS011;32779;52.264;6.154;2024-02-04T21:58:25;21.48;;;4.63;;
47021;SDS011;32779;52.264;6.154;2024-02-04T22:00:51;23.95;;;4.13;;
47021;SDS011;32779;52.264;6.154;2024-02-04T22:03:16;15.88;;;4.75;;
47021;SDS011;32779;52.264;6.154;2024-02-04T22:05:42;20.55;;;4.30;;
47021;SDS011;32779;52.264;6.154;2024-02-04T22:08:08;21.33;;;4.07;;
47021;SDS011;32779;52.264;6.154;2024-02-04T22:10:33;26.45;;;4.63;;
47021;SDS011;32779;52.264;6.154;2024-02-04T22:12:59;25.63;;;4.88;;
47021;SDS011;32779;52.264;6.154;2024-02-04T22:15:25;17.08;;;4.15;;
47021;SDS011;32779;52.264;6.154;2024-02-04T22:17:51;18.77;;;3.92;;
47021;SDS011;32779;52.264;6.154;2024-02-04T22:20:16;23.52;;;4.35;;
47021;SDS011;32779;52.264;6.154;2024-02-04T22:22:42;21.35;;;4.50;;
47021;SDS011;32779;52.264;6.154;2024-02-04T22:25:08;25.30;;;4.85;;
47021;SDS011;32779;52.264;6.154;2024-02-04T22:27:33;20.35;;;4.00;;
47021;SDS011;32779;52.264;6.154;2024-02-04T22:29:59;23.60;;;4.30;;
47021;SDS011;32779;52.264;6.154;2024-02-04T22:32:26;20.98;;;3.80;;
47021;SDS011;32779;52.264;6.154;2024-02-04T22:34:52;25.55;;;4.97;;
47021;SDS011;32779;52.264;6.154;2024-02-04T22:37:18;15.52;;;3.50;;
47021;SDS011;32779;52.264;6.154;2024-02-04T22:39:43;18.05;;;4.03;;
47021;SDS011;32779;52.264;6.154;2024-02-04T22:42:09;19.05;;;4.13;;
47021;SDS011;32779;52.264;6.154;2024-02-04T22:44:34;21.52;;;4.32;;
47021;SDS011;32779;52.264;6.154;2024-02-04T22:47:00;15.70;;;4.25;;
47021;SDS011;32779;52.264;6.154;2024-02-04T22:49:26;22.83;;;3.90;;
47021;SDS011;32779;52.264;6.154;2024-02-04T22:51:51;19.85;;;3.60;;
47021;SDS011;32779;52.264;6.154;2024-02-04T22:54:17;21.42;;;3.63;;
47021;SDS011;32779;52.264;6.154;2024-02-04T22:56:43;22.52;;;4.28;;
47021;SDS011;32779;52.264;6.154;2024-02-04T22:59:10;17.27;;;4.13;;
47021;SDS011;32779;52.264;6.154;2024-02-04T23:01:36;22.70;;;3.97;;
47021;SDS011;32779;52.264;6.154;2024-02-04T23:04:02;18.13;;;4.07;;
47021;SDS011;32779;52.264;6.154;2024-02-04T23:06:28;22.13;;;4.22;;
47021;SDS011;32779;52.264;6.154;2024-02-04T23:08:54;16.30;;;3.90;;
47021;SDS011;32779;52.264;6.154;2024-02-04T23:11:20;19.38;;;3.95;;
47021;SDS011;32779;52.264;6.154;2024-02-04T23:13:46;28.63;;;4.88;;
47021;SDS011;32779;52.264;6.154;2024-02-04T23:16:15;23.48;;;4.18;;
47021;SDS011;32779;52.264;6.154;2024-02-04T23:18:42;20.52;;;4.10;;
47021;SDS011;32779;52.264;6.154;2024-02-04T23:21:08;26.58;;;4.47;;
47021;SDS011;32779;52.264;6.154;2024-02-04T23:23:34;24.67;;;4.65;;
47021;SDS011;32779;52.264;6.154;2024-02-04T23:25:59;19.88;;;3.95;;
47021;SDS011;32779;52.264;6.154;2024-02-04T23:28:25;26.90;;;4.20;;
47021;SDS011;32779;52.264;6.154;2024-02-04T23:33:17;22.85;;;5.00;;
47021;SDS011;32779;52.264;6.154;2024-02-04T23:35:43;22.90;;;4.57;;
47021;SDS011;32779;52.264;6.154;2024-02-04T23:38:08;19.63;;;4.20;;
47021;SDS011;32779;52.264;6.154;2024-02-04T23:40:34;22.05;;;4.75;;
47021;SDS011;32779;52.264;6.154;2024-02-04T23:43:00;26.80;;;4.72;;
47021;SDS011;32779;52.264;6.154;2024-02-04T23:45:26;18.67;;;4.00;;
47021;SDS011;32779;52.264;6.154;2024-02-04T23:47:51;18.30;;;3.75;;
47021;SDS011;32779;52.264;6.154;2024-02-04T23:50:17;29.17;;;4.85;;
47021;SDS011;32779;52.264;6.154;2024-02-04T23:55:09;25.08;;;4.25;;
47021;SDS011;32779;52.264;6.154;2024-02-04T23:57:35;25.02;;;4.22;;
